Time;durP1;ratioP1;P1;durP2;ratioP2;P2;SDS_P1;SDS_P2;PMS_P1;PMS_P2;Temp;Humidity;BMP_temperature;BMP_pressure;BME280_temperature;BME280_humidity;BME280_pressure;Samples;Min_cycle;Max_cycle;Signal;HPM_P1;HPM_P2
2022/11/20 00:00:11;;;;;;;2.53;2.30;;;4.30;99.90;;;;;;4555149;31;20060;-92
2022/11/20 00:02:54;;;;;;;4.93;2.30;;;4.40;99.90;;;;;;4549872;31;20061;-93
2022/11/20 00:07:11;;;;;;;3.78;2.42;;;4.40;99.90;;;;;;4566107;31;20057;-92
2022/11/20 00:11:35;;;;;;;3.40;2.33;;;4.40;99.90;;;;;;4698947;25;20044;-91
2022/11/20 00:20:28;;;;;;;3.67;2.88;;;4.30;99.90;;;;;;4702270;30;20052;-91
2022/11/20 00:28:58;;;;;;;2.95;2.75;;;4.30;99.90;;;;;;4634276;30;20158;-91
2022/11/20 00:32:34;;;;;;;3.15;2.83;;;4.30;99.90;;;;;;4639471;30;20047;-91
2022/11/20 00:41:05;;;;;;;3.00;2.70;;;4.30;99.90;;;;;;4737007;30;20247;-92
2022/11/20 00:44:05;;;;;;;2.30;2.10;;;4.40;99.90;;;;;;4724315;30;20064;-92
2022/11/20 00:46:44;;;;;;;7.32;3.55;;;4.40;99.90;;;;;;4710112;30;20056;-93
2022/11/20 00:49:44;;;;;;;2.15;1.95;;;4.50;99.90;;;;;;4683486;30;20411;-92
2022/11/20 00:52:52;;;;;;;3.05;2.85;;;4.50;99.90;;;;;;4650624;30;20502;-92
2022/11/20 00:59:43;;;;;;;3.22;2.33;;;4.50;99.90;;;;;;4635765;30;20372;-92
2022/11/20 01:04:02;;;;;;;13.40;2.70;;;4.50;99.90;;;;;;4615613;30;20061;-92
2022/11/20 01:07:05;;;;;;;2.90;2.28;;;4.60;99.90;;;;;;4650817;30;20054;-92
2022/11/20 01:10:07;;;;;;;2.30;2.10;;;4.60;99.90;;;;;;4648620;30;20082;-90
2022/11/20 01:13:36;;;;;;;2.03;1.77;;;4.60;99.90;;;;;;4663193;30;20450;-91
2022/11/20 01:16:48;;;;;;;1.92;1.58;;;4.60;99.90;;;;;;4656062;30;20396;-91
2022/11/20 01:20:05;;;;;;;2.28;2.17;;;4.60;99.90;;;;;;4641204;30;20043;-92
2022/11/20 01:23:17;;;;;;;;;;;;;;;;;;;;;
2022/11/20 01:26:39;;;;;;;2.15;1.98;;;4.60;99.90;;;;;;4690244;30;20057;-93
2022/11/20 01:29:25;;;;;;;;;;;;;;;;;;;;;
2022/11/20 01:32:33;;;;;;;3.10;2.90;;;4.60;99.90;;;;;;4668797;30;20053;-88
2022/11/20 01:35:01;;;;;;;3.05;2.58;;;4.60;99.90;;;;;;4644975;30;20057;-84
2022/11/20 01:37:28;;;;;;;2.72;2.53;;;4.60;99.90;;;;;;4752336;30;20064;-83
2022/11/20 01:39:56;;;;;;;4.70;3.10;;;4.50;99.90;;;;;;4751932;30;20041;-81
2022/11/20 01:43:25;;;;;;;2.67;2.03;;;4.40;99.90;;;;;;4721811;30;20052;-84
2022/11/20 01:45:51;;;;;;;2.08;1.98;;;4.40;99.90;;;;;;4732806;30;20052;-84
2022/11/20 01:48:21;;;;;;;2.90;2.53;;;4.40;99.90;;;;;;4721338;30;20061;-84
2022/11/20 01:50:48;;;;;;;2.42;1.90;;;4.30;99.90;;;;;;4752020;30;20063;-84
2022/11/20 01:53:19;;;;;;;3.83;1.83;;;4.30;99.90;;;;;;4735626;30;20089;-84
2022/11/20 01:55:53;;;;;;;1.52;1.42;;;4.30;99.90;;;;;;4735948;30;20059;-84
2022/11/20 01:58:27;;;;;;;3.17;2.17;;;4.20;99.90;;;;;;4721397;30;20075;-83
2022/11/20 02:00:55;;;;;;;2.92;2.53;;;4.20;99.90;;;;;;4751679;30;20071;-84
2022/11/20 02:03:27;;;;;;;4.57;3.25;;;4.20;99.90;;;;;;4751368;30;20487;-84
2022/11/20 02:06:01;;;;;;;2.35;2.15;;;4.20;99.90;;;;;;4721830;30;20518;-84
2022/11/20 02:08:28;;;;;;;5.30;2.78;;;4.20;99.90;;;;;;4751220;30;20044;-85
2022/11/20 02:10:56;;;;;;;2.50;2.30;;;4.20;99.90;;;;;;4735828;30;20052;-84
2022/11/20 02:16:16;;;;;;;4.43;3.17;;;4.20;99.90;;;;;;4735484;30;20063;-84
2022/11/20 02:18:45;;;;;;;3.45;3.10;;;4.20;99.90;;;;;;4707154;30;20495;-83
2022/11/20 02:21:28;;;;;;;3.15;2.85;;;4.20;99.90;;;;;;4721110;30;20437;-83
2022/11/20 02:24:02;;;;;;;2.67;2.47;;;4.20;99.90;;;;;;4735955;30;20051;-84
2022/11/20 02:26:33;;;;;;;2.35;2.15;;;4.20;99.90;;;;;;4736383;30;20075;-84
2022/11/20 02:29:02;;;;;;;4.60;3.00;;;4.20;99.90;;;;;;4735834;30;20048;-84
2022/11/20 02:31:37;;;;;;;3.28;2.35;;;4.20;99.90;;;;;;4745495;30;20291;-84
2022/11/20 02:34:08;;;;;;;4.70;4.32;;;4.20;99.90;;;;;;4718311;30;20060;-84
2022/11/20 02:36:38;;;;;;;3.28;2.80;;;4.20;99.90;;;;;;4732411;30;20415;-84
2022/11/20 02:39:06;;;;;;;3.10;2.70;;;4.20;99.90;;;;;;4718388;30;20071;-84
2022/11/20 02:41:35;;;;;;;4.65;2.88;;;4.20;99.90;;;;;;4718712;30;20052;-81
2022/11/20 02:44:04;;;;;;;2.35;2.10;;;4.20;99.90;;;;;;4720007;30;20053;-83
2022/11/20 02:46:33;;;;;;;2.50;2.30;;;4.30;99.90;;;;;;4737209;30;20060;-81
2022/11/20 02:49:04;;;;;;;4.18;2.78;;;4.30;99.90;;;;;;4721175;30;20076;-83
2022/11/20 02:51:32;;;;;;;2.28;2.08;;;4.30;99.90;;;;;;4735860;30;20511;-82
2022/11/20 02:53:59;;;;;;;2.63;2.35;;;4.30;99.90;;;;;;4721566;30;20060;-81
2022/11/20 02:56:27;;;;;;;2.88;2.63;;;4.30;99.90;;;;;;4720891;30;20052;-83
2022/11/20 02:58:55;;;;;;;4.88;3.78;;;4.30;99.90;;;;;;4720819;30;20065;-83
2022/11/20 03:01:22;;;;;;;8.82;2.67;;;4.30;99.90;;;;;;4706923;30;20414;-81
2022/11/20 03:03:50;;;;;;;2.45;2.25;;;4.30;99.90;;;;;;4735152;30;20064;-82
2022/11/20 03:06:17;;;;;;;3.55;2.58;;;4.40;99.90;;;;;;4706524;30;20060;-83
2022/11/20 03:08:45;;;;;;;2.58;2.38;;;4.40;99.90;;;;;;4735380;30;20059;-83
2022/11/20 03:11:12;;;;;;;2.80;2.60;;;4.40;99.90;;;;;;4738492;30;20044;-83
2022/11/20 03:13:39;;;;;;;2.03;1.92;;;4.40;99.90;;;;;;4754550;30;20052;-83
2022/11/20 03:16:13;;;;;;;2.80;2.40;;;4.40;99.90;;;;;;4738293;30;20071;-82
2022/11/20 03:18:41;;;;;;;5.68;3.42;;;4.40;99.90;;;;;;4754171;30;20067;-82
2022/11/20 03:21:10;;;;;;;2.58;2.38;;;4.30;99.90;;;;;;4754172;30;20067;-82
2022/11/20 03:23:38;;;;;;;3.75;3.42;;;4.30;99.90;;;;;;4723522;30;20567;-81
2022/11/20 03:26:19;;;;;;;5.72;2.67;;;4.40;99.90;;;;;;4754309;30;20063;-81
2022/11/20 03:28:51;;;;;;;3.65;2.65;;;4.40;99.90;;;;;;4723314;30;20063;-82
2022/11/20 03:31:22;;;;;;;3.50;2.55;;;4.40;99.90;;;;;;4723463;30;20052;-88
2022/11/20 03:33:50;;;;;;;3.78;2.20;;;4.40;99.90;;;;;;4710350;30;20052;-91
2022/11/20 03:36:19;;;;;;;3.03;2.78;;;4.40;99.90;;;;;;4724030;30;20063;-90
2022/11/20 03:38:50;;;;;;;7.53;2.92;;;4.30;99.90;;;;;;4710012;30;20056;-91
2022/11/20 03:41:37;;;;;;;4.63;4.07;;;4.40;99.90;;;;;;4710064;30;20503;-90
2022/11/20 03:44:10;;;;;;;;;;;4.40;99.90;;;;;;4710465;30;20136;-91
2022/11/20 03:46:39;;;;;;;5.88;2.85;;;4.40;99.90;;;;;;4724239;30;19933;-91
2022/11/20 03:49:10;;;;;;;3.30;3.00;;;4.40;99.90;;;;;;4723893;30;20051;-92
2022/11/20 03:51:41;;;;;;;4.60;3.30;;;4.40;99.90;;;;;;4710006;30;20059;-90
2022/11/20 03:54:09;;;;;;;3.35;3.05;;;4.30;99.90;;;;;;4709767;30;20476;-90
2022/11/20 03:56:38;;;;;;;3.17;2.80;;;4.30;99.90;;;;;;4709185;30;20044;-91
2022/11/20 03:59:09;;;;;;;2.47;2.38;;;4.30;99.90;;;;;;4723350;30;20060;-89
2022/11/20 04:01:49;;;;;;;2.40;2.20;;;4.20;99.90;;;;;;4709951;30;20048;-90
2022/11/20 04:04:17;;;;;;;3.25;2.42;;;4.30;99.90;;;;;;4701860;30;20041;-90
2022/11/20 04:06:48;;;;;;;2.60;2.40;;;4.30;99.90;;;;;;4710294;30;20052;-91
2022/11/20 04:09:19;;;;;;;4.05;2.45;;;4.30;99.90;;;;;;4716567;30;20310;-91
2022/11/20 04:11:47;;;;;;;2.60;2.40;;;4.30;99.90;;;;;;4724091;30;20041;-91
2022/11/20 04:14:18;;;;;;;2.83;2.55;;;4.30;99.90;;;;;;4709586;30;20056;-89
2022/11/20 04:16:54;;;;;;;3.95;2.58;;;4.30;99.90;;;;;;4710059;30;20065;-90
2022/11/20 04:19:22;;;;;;;3.08;2.85;;;4.30;99.90;;;;;;4723330;30;20055;-90
2022/11/20 04:21:53;;;;;;;2.88;2.67;;;4.30;99.90;;;;;;4709899;30;20056;-89
2022/11/20 04:24:24;;;;;;;3.85;3.28;;;4.30;99.90;;;;;;4709414;30;20044;-90
2022/11/20 04:26:54;;;;;;;2.97;2.75;;;4.30;99.90;;;;;;4722645;30;20063;-89
2022/11/20 04:29:22;;;;;;;2.65;2.42;;;4.30;99.90;;;;;;4738707;30;20515;-90
2022/11/20 04:31:51;;;;;;;2.40;2.20;;;4.40;99.90;;;;;;4714469;30;20053;-91
2022/11/20 04:39:26;;;;;;;4.38;2.78;;;4.40;99.90;;;;;;4719620;30;20041;-88
2022/11/20 04:42:28;;;;;;;3.53;3.22;;;4.30;99.90;;;;;;4720888;30;20064;-89
2022/11/20 04:44:44;;;;;;;9.13;2.70;;;4.30;99.90;;;;;;4705691;30;20057;-89
2022/11/20 04:47:12;;;;;;;3.53;3.00;;;4.30;99.90;;;;;;4735076;30;20369;-89
2022/11/20 04:49:39;;;;;;;2.63;2.42;;;4.20;99.90;;;;;;4706631;30;20604;-90
2022/11/20 04:52:07;;;;;;;2.92;2.72;;;4.20;99.90;;;;;;4706217;30;20067;-90
2022/11/20 04:54:36;;;;;;;4.07;2.00;;;4.20;99.90;;;;;;4706407;30;20061;-90
2022/11/20 04:57:04;;;;;;;3.58;3.13;;;4.20;99.90;;;;;;4691461;30;20504;-89
2022/11/20 04:59:45;;;;;;;2.67;2.47;;;4.10;99.90;;;;;;4705079;30;20248;-89
2022/11/20 05:02:25;;;;;;;2.70;2.50;;;4.20;99.90;;;;;;4720682;30;20514;-89
2022/11/20 05:15:38;;;;;;;2.03;1.92;;;4.20;99.90;;;;;;4715585;30;20056;-90
2022/11/20 05:18:07;;;;;;;4.25;2.95;;;4.10;99.90;;;;;;4688031;30;20064;-81
2022/11/20 05:20:36;;;;;;;2.70;2.47;;;4.20;99.90;;;;;;4701074;30;20057;-80
2022/11/20 05:23:03;;;;;;;2.30;2.10;;;4.20;99.90;;;;;;4716996;30;20057;-81
2022/11/20 05:25:30;;;;;;;2.65;2.47;;;4.20;99.90;;;;;;4716295;30;20071;-80
2022/11/20 05:27:57;;;;;;;2.75;2.13;;;4.10;99.90;;;;;;4716588;30;20045;-81
2022/11/20 05:30:25;;;;;;;4.05;2.75;;;4.20;99.90;;;;;;4701828;30;20049;-81
2022/11/20 05:32:52;;;;;;;3.35;2.50;;;4.10;99.90;;;;;;4701174;30;20064;-80
2022/11/20 05:35:23;;;;;;;2.28;2.08;;;4.10;99.90;;;;;;4716613;30;20053;-81
2022/11/20 05:37:50;;;;;;;4.07;3.73;;;4.10;99.90;;;;;;4701746;30;20060;-81
2022/11/20 05:40:17;;;;;;;2.60;2.40;;;4.10;99.90;;;;;;4686882;30;20053;-80
2022/11/20 05:42:45;;;;;;;3.22;2.78;;;4.10;99.90;;;;;;4726262;30;20060;-81
2022/11/20 05:45:12;;;;;;;2.75;2.55;;;4.10;99.90;;;;;;4734205;30;20415;-81
2022/11/20 05:47:39;;;;;;;2.00;1.90;;;4.10;99.90;;;;;;4734080;30;20861;-81
2022/11/20 05:50:07;;;;;;;2.42;2.22;;;4.10;99.90;;;;;;4718599;30;20053;-81
2022/11/20 05:52:34;;;;;;;2.90;2.65;;;4.10;99.90;;;;;;4704059;30;20052;-81
2022/11/20 05:55:02;;;;;;;2.72;2.53;;;4.10;99.90;;;;;;4732896;30;20053;-81
2022/11/20 05:57:30;;;;;;;3.30;2.55;;;4.10;99.90;;;;;;4718787;30;20060;-80
2022/11/20 05:59:58;;;;;;;2.65;2.45;;;4.10;99.90;;;;;;4733088;30;20051;-80
2022/11/20 06:02:25;;;;;;;2.97;2.78;;;4.10;99.90;;;;;;4734546;30;20056;-81
2022/11/20 06:04:57;;;;;;;6.40;2.22;;;4.20;99.90;;;;;;4717939;30;20053;-81
2022/11/20 06:07:24;;;;;;;6.22;2.67;;;4.20;99.90;;;;;;4718321;30;20419;-81
2022/11/20 06:09:51;;;;;;;5.82;2.78;;;4.20;99.90;;;;;;4734556;30;20053;-80
2022/11/20 06:12:18;;;;;;;6.32;3.95;;;4.10;99.90;;;;;;4734264;30;20059;-81
2022/11/20 06:14:46;;;;;;;2.40;2.22;;;4.20;99.90;;;;;;4718726;30;20053;-80
2022/11/20 06:17:13;;;;;;;10.55;3.60;;;4.10;99.90;;;;;;4733326;30;20067;-81
2022/11/20 06:19:40;;;;;;;3.03;2.75;;;4.10;99.90;;;;;;4737308;30;20045;-81
2022/11/20 06:22:08;;;;;;;5.75;3.17;;;4.00;99.90;;;;;;4737739;30;20396;-81
2022/11/20 06:24:35;;;;;;;3.72;3.42;;;4.00;99.90;;;;;;4721066;30;20057;-81
2022/11/20 06:27:03;;;;;;;3.55;3.30;;;4.00;99.90;;;;;;4721174;30;20056;-80
2022/11/20 06:29:30;;;;;;;2.58;2.38;;;4.10;99.90;;;;;;4737381;30;20060;-81
2022/11/20 06:32:01;;;;;;;2.80;2.60;;;4.10;99.90;;;;;;4737120;30;20072;-81
2022/11/20 06:34:35;;;;;;;6.60;2.92;;;4.10;99.90;;;;;;4737492;30;20499;-80
2022/11/20 06:37:02;;;;;;;6.90;3.20;;;4.10;99.90;;;;;;4737034;30;20416;-81
2022/11/20 06:39:29;;;;;;;3.10;2.47;;;4.20;99.90;;;;;;4737039;30;20045;-80
2022/11/20 06:41:57;;;;;;;7.78;2.85;;;4.20;99.90;;;;;;4737484;30;20056;-81
2022/11/20 06:44:26;;;;;;;3.63;3.28;;;4.20;99.90;;;;;;4721134;30;20063;-80
2022/11/20 06:46:53;;;;;;;3.38;3.10;;;4.20;99.90;;;;;;4735816;30;20464;-80
2022/11/20 06:49:20;;;;;;;3.60;3.30;;;4.20;99.90;;;;;;4737225;30;20053;-81
2022/11/20 06:51:48;;;;;;;3.50;2.70;;;4.20;99.90;;;;;;4736830;30;20041;-81
2022/11/20 06:54:15;;;;;;;2.75;2.53;;;4.20;99.90;;;;;;4737277;30;20049;-81
2022/11/20 06:56:47;;;;;;;4.22;3.92;;;4.10;99.90;;;;;;4736361;30;20060;-81
2022/11/20 06:59:15;;;;;;;6.25;3.97;;;4.10;99.90;;;;;;4720944;30;20045;-81
2022/11/20 07:01:42;;;;;;;5.70;3.67;;;4.10;99.90;;;;;;4721400;30;20048;-80
2022/11/20 07:04:09;;;;;;;3.25;2.97;;;4.00;99.90;;;;;;4734800;30;20060;-80
2022/11/20 07:06:37;;;;;;;4.47;4.05;;;4.00;99.90;;;;;;4735922;30;20053;-80
2022/11/20 07:09:04;;;;;;;4.13;3.83;;;3.90;99.90;;;;;;4736783;30;20843;-80
2022/11/20 07:11:38;;;;;;;4.68;3.80;;;3.90;99.90;;;;;;4736318;30;20514;-81
2022/11/20 07:14:06;;;;;;;5.07;3.75;;;3.90;99.90;;;;;;4721018;30;20068;-80
2022/11/20 07:16:33;;;;;;;3.53;3.10;;;3.80;99.90;;;;;;4717681;30;20532;-80
2022/11/20 07:19:01;;;;;;;4.00;3.63;;;3.80;99.90;;;;;;4717316;30;20394;-81
2022/11/20 07:21:28;;;;;;;4.22;3.83;;;3.80;99.90;;;;;;4718256;30;20061;-80
2022/11/20 07:23:55;;;;;;;3.97;2.67;;;3.80;99.90;;;;;;4717519;30;20053;-80
2022/11/20 07:26:23;;;;;;;3.05;2.85;;;3.90;99.90;;;;;;4718995;30;20424;-80
2022/11/20 07:28:50;;;;;;;4.00;2.72;;;3.90;99.90;;;;;;4718286;30;20053;-80
2022/11/20 07:31:17;;;;;;;2.40;2.20;;;3.90;99.90;;;;;;4718703;30;20412;-80
2022/11/20 07:33:49;;;;;;;4.25;3.85;;;4.00;99.90;;;;;;4718810;30;20072;-80
2022/11/20 07:36:16;;;;;;;3.40;3.15;;;4.00;99.90;;;;;;4718575;30;20060;-80
2022/11/20 07:38:43;;;;;;;3.53;2.50;;;4.10;99.90;;;;;;4718812;30;20057;-80
2022/11/20 07:41:11;;;;;;;5.35;3.15;;;4.20;99.90;;;;;;4718501;30;20072;-81
2022/11/20 07:43:38;;;;;;;2.97;2.72;;;4.20;99.90;;;;;;4733769;30;20408;-78
2022/11/20 07:46:08;;;;;;;3.00;2.47;;;4.30;99.90;;;;;;4736128;30;20057;-80
2022/11/20 07:48:35;;;;;;;2.90;2.70;;;4.50;99.90;;;;;;4734128;30;20051;-80
2022/11/20 07:51:02;;;;;;;2.80;2.50;;;4.60;99.90;;;;;;4726222;30;20066;-80
2022/11/20 07:53:30;;;;;;;5.88;4.20;;;4.70;99.90;;;;;;4718685;30;20499;-80
2022/11/20 07:56:01;;;;;;;2.55;2.35;;;4.80;99.90;;;;;;4702846;30;20374;-80
2022/11/20 07:58:34;;;;;;;8.13;2.67;;;5.00;99.90;;;;;;4717196;30;20068;-80
2022/11/20 08:01:06;;;;;;;2.75;2.55;;;5.20;99.90;;;;;;4716848;30;20049;-80
2022/11/20 08:03:44;;;;;;;7.82;2.63;;;5.20;99.90;;;;;;4717814;30;20524;-80
2022/11/20 08:06:11;;;;;;;2.65;2.45;;;5.30;99.90;;;;;;4717878;30;20068;-80
2022/11/20 08:08:39;;;;;;;2.65;2.45;;;5.20;99.90;;;;;;4715512;30;20404;-80
2022/11/20 08:14:13;;;;;;;2.50;2.30;;;5.10;99.90;;;;;;4714318;30;20061;-80
2022/11/20 08:16:46;;;;;;;2.28;1.85;;;5.10;99.90;;;;;;4726533;30;20053;-80
2022/11/20 08:19:15;;;;;;;1.90;1.80;;;5.10;99.90;;;;;;4724863;30;20416;-80
2022/11/20 08:21:43;;;;;;;4.60;4.30;;;5.10;99.90;;;;;;4712497;30;20063;-80
2022/11/20 08:24:11;;;;;;;2.95;1.77;;;5.10;99.90;;;;;;4737211;30;20053;-81
2022/11/20 08:26:40;;;;;;;2.08;1.98;;;5.10;99.90;;;;;;4720950;30;20051;-80
2022/11/20 08:29:07;;;;;;;6.88;2.65;;;5.10;99.90;;;;;;4733582;30;20052;-81
2022/11/20 08:31:35;;;;;;;2.47;2.10;;;5.20;99.90;;;;;;4725310;30;20063;-81
2022/11/20 08:34:02;;;;;;;2.13;2.00;;;5.20;99.90;;;;;;4724007;30;20048;-81
2022/11/20 08:36:36;;;;;;;2.40;2.20;;;5.20;99.90;;;;;;4732212;30;20061;-81
2022/11/20 08:39:03;;;;;;;1.77;1.67;;;5.20;99.90;;;;;;4707620;30;20071;-81
2022/11/20 08:41:32;;;;;;;3.53;1.98;;;5.20;99.90;;;;;;4714170;30;20064;-81
2022/11/20 08:44:03;;;;;;;4.47;2.30;;;5.20;99.90;;;;;;4721428;30;20056;-78
2022/11/20 08:46:39;;;;;;;2.15;2.00;;;5.30;99.90;;;;;;4735295;30;20414;-80
2022/11/20 08:49:11;;;;;;;2.25;2.05;;;5.30;99.90;;;;;;4732608;30;20059;-81
2022/11/20 08:51:39;;;;;;;1.65;1.55;;;5.30;99.90;;;;;;4734907;30;20045;-81
2022/11/20 08:54:07;;;;;;;1.42;1.33;;;5.30;99.90;;;;;;4712223;30;20354;-81
2022/11/20 08:56:34;;;;;;;1.92;1.73;;;5.30;99.90;;;;;;4721858;30;20415;-80
2022/11/20 08:59:02;;;;;;;2.33;2.17;;;5.30;99.90;;;;;;4734424;30;20056;-82
2022/11/20 09:01:49;;;;;;;3.08;2.63;;;5.40;99.90;;;;;;4735157;30;20057;-80
2022/11/20 09:04:53;;;;;;;2.28;2.13;;;5.40;99.90;;;;;;4734204;30;20071;-81
2022/11/20 09:07:20;;;;;;;1.73;1.55;;;5.40;99.90;;;;;;4734127;30;20412;-82
2022/11/20 09:09:48;;;;;;;1.92;1.83;;;5.40;99.90;;;;;;4719853;30;20403;-82
2022/11/20 09:12:35;;;;;;;2.00;1.88;;;5.50;99.90;;;;;;4731400;30;20053;-79
2022/11/20 09:15:02;;;;;;;1.52;1.42;;;5.50;99.90;;;;;;4734234;30;20064;-82
2022/11/20 09:17:30;;;;;;;1.75;1.63;;;5.50;99.90;;;;;;4713772;30;20068;-80
2022/11/20 09:19:57;;;;;;;1.50;1.40;;;5.50;99.90;;;;;;4706208;30;20041;-81
2022/11/20 09:22:24;;;;;;;1.65;1.50;;;5.60;99.90;;;;;;4700496;30;20061;-81
2022/11/20 09:24:52;;;;;;;1.88;1.77;;;5.60;99.90;;;;;;4698388;30;20061;-81
2022/11/20 09:27:21;;;;;;;1.80;1.70;;;5.70;99.90;;;;;;4712894;30;20049;-82
2022/11/20 09:29:55;;;;;;;1.63;1.52;;;5.70;99.90;;;;;;4702090;30;20057;-94
2022/11/20 09:32:23;;;;;;;2.13;2.03;;;5.70;99.90;;;;;;4689050;30;20049;-92
2022/11/20 09:34:50;;;;;;;1.75;1.65;;;5.80;99.90;;;;;;4685496;30;20084;-95
2022/11/20 09:37:21;;;;;;;5.20;2.15;;;5.80;99.90;;;;;;4688194;30;20069;-95
2022/11/20 09:39:48;;;;;;;2.28;2.08;;;5.90;99.90;;;;;;4700928;30;20328;-92
2022/11/20 09:42:34;;;;;;;2.70;1.48;;;5.80;99.90;;;;;;4676792;30;20139;-94
2022/11/20 09:46:13;;;;;;;1.80;1.70;;;5.90;99.90;;;;;;4688531;30;20053;-93
2022/11/20 09:49:13;;;;;;;1.40;1.30;;;5.90;99.90;;;;;;4671703;30;20061;-87
2022/11/20 09:51:59;;;;;;;2.38;1.73;;;5.90;99.90;;;;;;4686959;30;20046;-93
2022/11/20 09:54:42;;;;;;;2.90;1.88;;;5.90;99.90;;;;;;4694592;30;20077;-92
2022/11/20 09:57:19;;;;;;;2.10;1.30;;;5.90;99.90;;;;;;4691205;30;20076;-95
2022/11/20 10:00:00;;;;;;;2.00;1.40;;;5.80;99.90;;;;;;4691680;30;20037;-95
2022/11/20 10:02:52;;;;;;;2.22;2.13;;;5.80;99.90;;;;;;4706704;30;20385;-94
2022/11/20 10:11:47;;;;;;;2.25;1.15;;;6.00;99.90;;;;;;4696966;30;20410;-94
2022/11/20 10:14:47;;;;;;;2.05;1.95;;;6.20;99.90;;;;;;4694987;30;20057;-96
2022/11/20 10:17:34;;;;;;;2.78;2.55;;;6.20;99.90;;;;;;4678245;30;20065;-95
2022/11/20 10:20:20;;;;;;;1.60;1.50;;;6.20;99.90;;;;;;4677305;30;20087;-93
2022/11/20 10:23:05;;;;;;;1.30;1.20;;;6.30;99.90;;;;;;4674507;30;20057;-93
2022/11/20 10:25:46;;;;;;;1.88;1.50;;;6.30;99.90;;;;;;4688573;30;20396;-94
2022/11/20 10:28:23;;;;;;;1.58;1.48;;;6.40;99.90;;;;;;4681970;30;20061;-95
2022/11/20 10:31:02;;;;;;;2.50;1.67;;;6.40;99.90;;;;;;4683832;30;20053;-82
2022/11/20 10:33:38;;;;;;;1.10;1.10;;;6.50;99.90;;;;;;4683344;30;20054;-81
2022/11/20 10:36:33;;;;;;;1.20;1.10;;;6.50;99.90;;;;;;4683039;30;20391;-82
2022/11/20 10:39:18;;;;;;;2.45;1.33;;;6.50;99.90;;;;;;4683411;30;20062;-83
2022/11/20 10:41:50;;;;;;;1.88;1.77;;;6.50;99.90;;;;;;4700774;30;20065;-83
2022/11/20 10:47:16;;;;;;;1.23;1.13;;;6.60;99.90;;;;;;4719934;30;19931;-82
2022/11/20 10:49:49;;;;;;;2.78;1.38;;;6.70;99.90;;;;;;4720390;30;20053;-83
2022/11/20 10:52:35;;;;;;;2.40;1.80;;;6.70;99.90;;;;;;4719872;30;20057;-83
2022/11/20 10:55:38;;;;;;;1.20;1.10;;;6.90;99.90;;;;;;4719681;30;20401;-82
2022/11/20 10:58:27;;;;;;;0.98;0.98;;;6.90;99.90;;;;;;4710836;30;20057;-82
2022/11/20 11:01:23;;;;;;;1.20;1.20;;;7.00;99.90;;;;;;4719588;30;20045;-85
2022/11/20 11:03:53;;;;;;;1.40;1.30;;;7.00;99.90;;;;;;4718275;30;20049;-83
2022/11/20 11:06:34;;;;;;;1.13;1.08;;;7.00;99.90;;;;;;4704378;30;20053;-82
2022/11/20 11:09:10;;;;;;;1.42;0.90;;;7.10;99.90;;;;;;4719222;30;20076;-81
2022/11/20 11:11:38;;;;;;;3.90;1.33;;;7.10;99.90;;;;;;4719243;30;20045;-83
2022/11/20 11:14:10;;;;;;;1.45;1.27;;;7.10;99.90;;;;;;4675301;30;20053;-83
2022/11/20 11:16:51;;;;;;;1.10;1.10;;;7.30;99.90;;;;;;4714799;30;20413;-82
2022/11/20 11:19:18;;;;;;;1.20;1.13;;;7.60;99.90;;;;;;4700247;30;20068;-81
2022/11/20 11:21:54;;;;;;;0.98;0.93;;;7.50;99.90;;;;;;4701863;30;20057;-79
2022/11/20 11:24:27;;;;;;;2.17;1.17;;;7.30;99.90;;;;;;4701741;30;20046;-83
2022/11/20 11:27:17;;;;;;;1.08;1.02;;;7.30;99.90;;;;;;4714949;30;20061;-82
2022/11/20 11:29:45;;;;;;;1.33;1.23;;;7.20;99.90;;;;;;4715065;30;20481;-80
2022/11/20 11:32:20;;;;;;;2.47;1.00;;;7.20;99.90;;;;;;4701261;30;20054;-81
2022/11/20 11:35:06;;;;;;;1.90;1.13;;;7.10;99.90;;;;;;4701621;30;20069;-80
2022/11/20 11:37:36;;;;;;;1.38;0.90;;;7.10;99.90;;;;;;4686520;30;20049;-81
2022/11/20 11:40:06;;;;;;;0.77;0.77;;;7.10;99.90;;;;;;4700185;30;20069;-81
2022/11/20 11:43:04;;;;;;;1.00;1.00;;;7.10;99.90;;;;;;4710479;30;20060;-81
2022/11/20 11:45:31;;;;;;;1.05;1.05;;;7.10;99.90;;;;;;4719023;30;20066;-82
2022/11/20 11:48:02;;;;;;;0.80;0.80;;;7.00;99.90;;;;;;4718447;30;20765;-83
2022/11/20 11:50:30;;;;;;;2.08;1.05;;;7.00;99.90;;;;;;4718826;30;20680;-81
2022/11/20 11:53:10;;;;;;;1.10;0.88;;;7.00;99.90;;;;;;4717125;30;20064;-82
2022/11/20 11:56:07;;;;;;;0.88;0.88;;;7.00;99.90;;;;;;4718580;30;20045;-82
2022/11/20 11:58:41;;;;;;;1.40;0.90;;;6.90;99.90;;;;;;4717399;30;20586;-80
2022/11/20 12:01:21;;;;;;;0.90;0.90;;;6.90;99.90;;;;;;4718207;30;20503;-81
2022/11/20 12:04:40;;;;;;;0.73;0.73;;;7.00;99.90;;;;;;4718049;30;20392;-82
2022/11/20 12:07:29;;;;;;;1.70;1.27;;;7.00;99.90;;;;;;4717770;30;20501;-80
2022/11/20 12:10:17;;;;;;;1.63;1.10;;;7.00;99.90;;;;;;4718623;30;20064;-79
2022/11/20 12:12:52;;;;;;;1.10;1.00;;;6.90;99.90;;;;;;4718120;30;20060;-82
2022/11/20 12:15:28;;;;;;;1.40;1.20;;;7.00;99.90;;;;;;4717592;30;20401;-82
2022/11/20 12:17:56;;;;;;;3.75;1.80;;;6.90;99.90;;;;;;4718267;30;20404;-79
2022/11/20 12:20:28;;;;;;;3.20;1.73;;;7.00;99.90;;;;;;4716773;30;20056;-83
2022/11/20 12:23:21;;;;;;;1.98;1.77;;;6.90;99.90;;;;;;4718184;30;20060;-82
2022/11/20 12:25:57;;;;;;;1.40;1.30;;;7.00;99.90;;;;;;4718342;30;20142;-81
2022/11/20 12:29:08;;;;;;;4.88;1.15;;;7.00;99.90;;;;;;4717652;30;20072;-80
2022/11/20 12:31:54;;;;;;;1.15;1.05;;;7.10;99.90;;;;;;4717254;30;20044;-82
2022/11/20 12:34:48;;;;;;;9.13;1.63;;;7.20;99.90;;;;;;4716832;30;20052;-82
2022/11/20 12:37:21;;;;;;;0.82;0.82;;;7.30;99.90;;;;;;4717606;30;20061;-82
2022/11/20 12:39:50;;;;;;;0.90;0.90;;;7.30;99.90;;;;;;4717870;30;20053;-83
2022/11/20 12:46:07;;;;;;;0.70;0.70;;;7.10;99.90;;;;;;4699268;30;20057;-82
2022/11/20 12:48:51;;;;;;;1.02;1.02;;;7.00;99.90;;;;;;4715884;30;20493;-80
2022/11/20 12:51:22;;;;;;;1.58;1.48;;;7.00;99.90;;;;;;4716447;30;20052;-82
2022/11/20 12:53:49;;;;;;;1.98;1.88;;;6.90;99.90;;;;;;4718152;30;20052;-81
2022/11/20 12:56:46;;;;;;;9.95;1.27;;;6.70;99.90;;;;;;4716203;30;20072;-83
2022/11/20 12:59:32;;;;;;;2.00;1.90;;;6.10;99.90;;;;;;4686333;30;20068;-81
2022/11/20 13:02:17;;;;;;;4.30;1.40;;;5.80;99.90;;;;;;4701915;30;20060;-84
2022/11/20 13:05:12;;;;;;;1.70;1.30;;;5.90;99.90;;;;;;4715043;30;20049;-82
2022/11/20 13:07:40;;;;;;;1.90;1.48;;;5.90;99.90;;;;;;4717101;30;20049;-82
2022/11/20 13:10:45;;;;;;;1.33;1.30;;;5.90;99.90;;;;;;4720735;30;20046;-96
2022/11/20 13:13:59;;;;;;;1.98;1.25;;;5.90;99.90;;;;;;4668671;30;20057;-94
2022/11/20 13:16:38;;;;;;;0.95;0.95;;;5.90;99.90;;;;;;4688358;30;20071;-93
2022/11/20 13:22:49;;;;;;;1.02;0.98;;;6.00;99.90;;;;;;4703709;30;20057;-90
2022/11/20 13:25:47;;;;;;;1.25;1.23;;;6.00;99.90;;;;;;4689085;30;20060;-93
2022/11/20 13:28:30;;;;;;;1.67;1.58;;;5.90;99.90;;;;;;4700018;30;20430;-89
2022/11/20 13:31:00;;;;;;;1.48;1.13;;;6.00;99.90;;;;;;4680688;30;20048;-89
2022/11/20 13:33:34;;;;;;;1.05;1.05;;;5.90;99.90;;;;;;4688150;30;20053;-89
2022/11/20 13:36:19;;;;;;;1.85;1.13;;;5.90;99.90;;;;;;4701624;30;20057;-91
2022/11/20 13:38:55;;;;;;;2.22;1.52;;;5.90;99.90;;;;;;4706052;30;20053;-79
2022/11/20 13:42:26;;;;;;;1.50;1.40;;;5.90;99.90;;;;;;4715546;30;20050;-91
2022/11/20 13:45:08;;;;;;;2.40;2.10;;;5.80;99.90;;;;;;4708054;30;20071;-85
2022/11/20 13:47:36;;;;;;;1.35;1.20;;;5.80;99.90;;;;;;4697972;30;20049;-85
2022/11/20 13:50:08;;;;;;;2.05;1.83;;;5.80;99.90;;;;;;4699355;30;20050;-81
2022/11/20 13:52:51;;;;;;;1.40;1.30;;;5.70;99.90;;;;;;4709648;30;20040;-80
2022/11/20 13:55:51;;;;;;;2.00;1.83;;;5.70;99.90;;;;;;4699174;30;20070;-81
2022/11/20 13:59:10;;;;;;;1.67;1.42;;;5.60;99.90;;;;;;4699755;30;20599;-90
2022/11/20 14:02:31;;;;;;;1.52;1.42;;;5.60;99.90;;;;;;4684607;30;20050;-92
2022/11/20 14:10:32;;;;;;;1.70;1.20;;;5.60;99.90;;;;;;4697260;30;20045;-92
2022/11/20 14:13:19;;;;;;;0.90;0.90;;;5.60;99.90;;;;;;4687129;30;20049;-91
2022/11/20 14:15:59;;;;;;;2.00;1.75;;;5.50;99.90;;;;;;4689388;30;20057;-94
2022/11/20 14:18:39;;;;;;;1.40;1.30;;;5.60;99.90;;;;;;4690481;30;20508;-92
2022/11/20 14:21:22;;;;;;;1.70;1.60;;;5.60;99.90;;;;;;4677580;30;20053;-91
2022/11/20 14:24:20;;;;;;;1.42;1.30;;;5.50;99.90;;;;;;4625971;30;20100;-90
2022/11/20 14:27:46;;;;;;;2.15;1.42;;;5.50;99.90;;;;;;4657953;30;20085;-93
2022/11/20 15:22:24;;;;;;;1.45;1.35;;;5.60;99.90;;;;;;5554141;24;20049;-93
2022/11/20 15:34:21;;;;;;;3.38;1.67;;;5.40;99.90;;;;;;4864783;24;20039;-95
2022/11/20 15:38:45;;;;;;;;;;;;;;;;;;;;;
2022/11/20 15:42:20;;;;;;;;;;;;;;;;;;;;;
2022/11/20 15:45:00;;;;;;;1.67;1.58;;;5.40;99.90;;;;;;4651273;30;20058;-92
2022/11/20 15:49:05;;;;;;;1.77;1.53;;;5.50;99.90;;;;;;4683841;30;20041;-91
2022/11/20 15:53:14;;;;;;;1.42;1.25;;;5.40;99.90;;;;;;4690556;30;20061;-92
2022/11/20 15:55:58;;;;;;;1.40;1.00;;;5.40;99.90;;;;;;4675627;30;20057;-91
2022/11/20 16:02:12;;;;;;;2.85;1.20;;;5.40;99.90;;;;;;4698012;30;20408;-92
2022/11/20 16:05:22;;;;;;;2.90;1.17;;;5.40;99.90;;;;;;4717071;30;20057;-92
2022/11/20 16:08:19;;;;;;;1.50;1.40;;;5.30;99.90;;;;;;4696606;30;20425;-92
2022/11/20 16:11:02;;;;;;;1.05;1.00;;;5.40;99.90;;;;;;4693048;30;20062;-91
2022/11/20 16:16:28;;;;;;;1.00;1.00;;;5.30;99.90;;;;;;4717801;30;20837;-82